createdAt,value
2018-12-14T00:00:58.691Z,71.75
2018-12-14T00:03:26.194Z,71.45
2018-12-14T00:05:53.733Z,71.06
2018-12-14T00:08:21.248Z,71.63
2018-12-14T00:10:48.823Z,71.93
2018-12-14T00:13:16.329Z,72.56
2018-12-14T00:15:43.850Z,72.95
2018-12-14T00:18:11.392Z,72.29
2018-12-14T00:20:38.923Z,72.39
2018-12-14T00:23:06.464Z,72.28
2018-12-14T00:25:33.974Z,72.03
2018-12-14T00:28:01.523Z,71.99
2018-12-14T00:30:29.664Z,72.38
2018-12-14T00:32:57.168Z,72.38
2018-12-14T00:35:25.003Z,71.85
2018-12-14T00:37:52.504Z,72.07
2018-12-14T00:40:20.039Z,72.06
2018-12-14T00:42:47.559Z,71.32
2018-12-14T00:45:15.100Z,71.27
2018-12-14T00:47:42.607Z,71.11
2018-12-14T00:50:10.216Z,71.09
2018-12-14T00:52:37.791Z,71.43
2018-12-14T00:55:06.396Z,71.37
2018-12-14T00:57:33.943Z,71.65
2018-12-14T01:00:01.452Z,71.47
2018-12-14T01:02:29.019Z,71.49
2018-12-14T01:04:56.744Z,72.06
2018-12-14T01:07:24.384Z,71.88
2018-12-14T01:09:51.923Z,71.41
2018-12-14T01:12:19.623Z,71.89
2018-12-14T01:14:47.290Z,71.67
2018-12-14T01:17:14.824Z,71.56
2018-12-14T01:19:42.389Z,71.54
2018-12-14T01:22:09.947Z,71.98
2018-12-14T01:24:37.448Z,72.13
2018-12-14T01:27:05.175Z,72.03
2018-12-14T01:29:32.699Z,71.95
2018-12-14T01:32:00.228Z,71.51
2018-12-14T01:34:27.767Z,71.79
2018-12-14T01:36:55.299Z,71.80
2018-12-14T01:39:22.843Z,71.97
2018-12-14T01:41:50.359Z,71.77
2018-12-14T01:44:17.896Z,70.67
2018-12-14T01:46:45.472Z,70.62
2018-12-14T01:49:12.996Z,71.47
2018-12-14T01:51:40.555Z,71.41
2018-12-14T01:54:08.060Z,72.42
2018-12-14T01:56:35.595Z,72.22
2018-12-14T01:59:03.595Z,71.93
2018-12-14T02:01:31.203Z,72.31
2018-12-14T02:03:58.725Z,71.61
2018-12-14T02:06:26.239Z,72.67
2018-12-14T02:08:53.784Z,72.12
2018-12-14T02:11:21.307Z,71.42
2018-12-14T02:13:48.840Z,71.30
2018-12-14T02:16:16.372Z,72.09
2018-12-14T02:18:44.134Z,72.67
2018-12-14T02:21:11.681Z,72.24
2018-12-14T02:23:39.224Z,72.15
2018-12-14T02:26:06.803Z,72.27
2018-12-14T02:28:34.308Z,72.87
2018-12-14T02:31:02.243Z,71.89
2018-12-14T02:33:29.749Z,72.04
2018-12-14T02:35:57.448Z,72.11
2018-12-14T02:38:24.997Z,72.60
2018-12-14T02:40:52.523Z,72.17
2018-12-14T02:43:22.063Z,72.04
2018-12-14T02:45:49.571Z,71.82
2018-12-14T02:48:17.274Z,72.16
2018-12-14T02:50:44.918Z,71.86
2018-12-14T02:53:12.428Z,72.22
2018-12-14T02:55:39.983Z,71.64
2018-12-14T02:58:07.498Z,72.19
2018-12-14T03:00:35.135Z,71.47
2018-12-14T03:03:02.645Z,71.95
2018-12-14T03:05:30.156Z,71.82
2018-12-14T03:07:57.708Z,72.38
2018-12-14T03:10:25.235Z,71.99
2018-12-14T03:12:52.891Z,72.26
2018-12-14T03:15:20.404Z,72.16
2018-12-14T03:17:47.907Z,72.65
2018-12-14T03:20:15.565Z,73.53
2018-12-14T03:22:43.091Z,73.48
2018-12-14T03:25:10.629Z,73.13
2018-12-14T03:27:38.136Z,73.50
2018-12-14T03:30:07.061Z,72.91
2018-12-14T03:32:34.608Z,72.41
2018-12-14T03:35:02.125Z,73.55
2018-12-14T03:37:29.696Z,72.79
2018-12-14T03:39:57.340Z,73.43
2018-12-14T03:42:24.947Z,73.14
2018-12-14T03:44:52.547Z,73.14
2018-12-14T03:47:20.057Z,73.17
2018-12-14T03:49:47.603Z,74.33
2018-12-14T03:52:15.212Z,74.05
2018-12-14T03:54:42.716Z,73.89
2018-12-14T03:57:10.263Z,74.22
2018-12-14T03:59:37.780Z,74.43
2018-12-14T04:02:05.407Z,74.32
2018-12-14T04:04:32.932Z,74.28
2018-12-14T04:07:00.439Z,74.62
2018-12-14T04:09:27.994Z,74.79
2018-12-14T04:11:55.503Z,74.43
2018-12-14T04:14:23.050Z,74.06
2018-12-14T04:16:50.576Z,75.27
2018-12-14T04:19:18.087Z,74.08
2018-12-14T04:21:45.623Z,74.90
2018-12-14T04:24:13.157Z,74.66
2018-12-14T04:26:40.819Z,74.69
2018-12-14T04:29:08.323Z,74.75
2018-12-14T04:31:35.831Z,74.95
2018-12-14T04:34:03.364Z,74.24
2018-12-14T04:36:30.885Z,74.49
2018-12-14T04:38:58.597Z,73.95
2018-12-14T04:41:26.099Z,73.68
2018-12-14T04:43:53.605Z,74.08
2018-12-14T04:46:21.174Z,74.05
2018-12-14T04:48:48.699Z,73.96
2018-12-14T04:51:16.272Z,74.56
2018-12-14T04:53:43.819Z,74.49
2018-12-14T04:56:11.344Z,74.38
2018-12-14T04:58:38.884Z,74.77
2018-12-14T05:01:06.395Z,74.24
2018-12-14T05:03:33.947Z,74.39
2018-12-14T05:06:01.457Z,74.01
2018-12-14T05:08:28.967Z,73.22
2018-12-14T05:10:56.536Z,73.83
2018-12-14T05:13:24.040Z,73.44
2018-12-14T05:15:51.600Z,74.65
2018-12-14T05:18:19.128Z,74.01
2018-12-14T05:20:46.632Z,72.56
2018-12-14T05:23:14.166Z,73.38
2018-12-14T05:25:41.667Z,73.17
2018-12-14T05:28:09.227Z,73.18
2018-12-14T05:30:36.732Z,73.63
2018-12-14T05:33:04.235Z,73.69
2018-12-14T05:35:31.787Z,74.11
2018-12-14T05:37:59.299Z,73.58
2018-12-14T05:40:26.831Z,73.47
2018-12-14T05:42:54.348Z,73.47
2018-12-14T05:45:21.859Z,73.54
2018-12-14T05:47:49.419Z,74.00
2018-12-14T05:50:16.923Z,73.34
2018-12-14T05:52:44.456Z,73.53
2018-12-14T05:55:11.968Z,73.94
2018-12-14T05:57:39.537Z,73.61
2018-12-14T06:00:09.340Z,73.34
2018-12-14T06:02:36.868Z,73.61
2018-12-14T06:05:05.409Z,73.42
2018-12-14T06:07:32.914Z,73.41
2018-12-14T06:10:00.499Z,73.24
2018-12-14T06:12:28.300Z,74.29
2018-12-14T06:14:55.815Z,74.21
2018-12-14T06:17:23.356Z,74.16
2018-12-14T06:19:50.878Z,73.97
2018-12-14T06:22:18.552Z,74.73
2018-12-14T06:24:46.077Z,74.53
2018-12-14T06:27:13.579Z,74.89
2018-12-14T06:29:41.118Z,74.80
2018-12-14T06:32:08.622Z,75.06
2018-12-14T06:34:36.354Z,74.95
2018-12-14T06:37:04.455Z,74.60
2018-12-14T06:39:32.069Z,74.09
2018-12-14T06:41:59.733Z,74.21
2018-12-14T06:44:27.279Z,74.54
2018-12-14T06:46:54.971Z,73.98
2018-12-14T06:49:22.495Z,72.48
2018-12-14T06:51:50.004Z,71.95
2018-12-14T06:54:17.537Z,71.72
2018-12-14T06:56:45.045Z,71.76
2018-12-14T06:59:12.771Z,71.64
2018-12-14T07:01:40.275Z,71.71
2018-12-14T07:04:07.817Z,71.98
2018-12-14T07:06:35.363Z,71.50
2018-12-14T07:09:04.648Z,71.15
2018-12-14T07:11:32.255Z,71.42
2018-12-14T07:13:59.764Z,71.19
2018-12-14T07:16:27.764Z,71.49
2018-12-14T07:18:55.303Z,72.09
2018-12-14T07:21:22.805Z,72.64
2018-12-14T07:23:50.422Z,72.18
2018-12-14T07:26:17.931Z,72.52
2018-12-14T07:28:45.441Z,72.14
2018-12-14T07:31:12.972Z,72.71
2018-12-14T07:33:40.488Z,72.33
2018-12-14T07:36:08.079Z,72.55
2018-12-14T07:38:35.587Z,71.57
2018-12-14T07:41:03.096Z,72.74
2018-12-14T07:43:30.628Z,71.49
2018-12-14T07:45:58.131Z,71.74
2018-12-14T07:48:25.907Z,71.70
2018-12-14T07:50:53.468Z,71.56
2018-12-14T07:53:20.986Z,71.93
2018-12-14T07:55:48.520Z,71.83
2018-12-14T07:58:16.033Z,71.41
2018-12-14T08:00:43.611Z,71.85
2018-12-14T08:03:11.115Z,71.26
2018-12-14T08:05:38.619Z,71.35
2018-12-14T08:08:06.175Z,71.04
2018-12-14T08:10:33.703Z,71.53
2018-12-14T08:13:01.437Z,70.46
2018-12-14T08:15:29.043Z,71.15
2018-12-14T08:17:56.575Z,70.85
2018-12-14T08:20:24.132Z,71.04
2018-12-14T08:22:51.648Z,70.42
2018-12-14T08:25:19.778Z,70.58
2018-12-14T08:27:47.283Z,70.31
2018-12-14T08:30:14.933Z,70.75
2018-12-14T08:32:42.437Z,71.23
2018-12-14T08:35:09.939Z,71.29
2018-12-14T08:37:37.514Z,71.84
2018-12-14T08:40:06.847Z,71.15
2018-12-14T08:42:34.396Z,71.48
2018-12-14T08:45:01.917Z,70.72
2018-12-14T08:47:29.427Z,70.84
2018-12-14T08:49:56.980Z,70.04
2018-12-14T08:52:24.508Z,70.34
2018-12-14T08:54:52.268Z,70.15
2018-12-14T08:57:19.781Z,71.33
2018-12-14T08:59:47.283Z,71.02
2018-12-14T09:02:14.843Z,70.73
2018-12-14T09:04:42.343Z,70.64
2018-12-14T09:07:09.945Z,71.02
2018-12-14T09:09:37.569Z,70.51
2018-12-14T09:12:05.071Z,71.04
2018-12-14T09:14:32.632Z,71.12
2018-12-14T09:17:00.136Z,70.52
2018-12-14T09:19:27.675Z,70.17
2018-12-14T09:21:55.180Z,71.10
2018-12-14T09:24:22.691Z,70.60
2018-12-14T09:26:50.251Z,71.08
2018-12-14T09:29:17.952Z,71.61
2018-12-14T09:31:46.071Z,72.20
2018-12-14T09:34:13.616Z,71.95
2018-12-14T09:36:41.120Z,71.18
2018-12-14T09:39:08.753Z,72.20
2018-12-14T09:41:36.267Z,71.61
2018-12-14T09:44:03.804Z,72.55
2018-12-14T09:46:36.908Z,71.41
2018-12-14T09:49:01.026Z,70.81
2018-12-14T09:51:28.575Z,69.76
2018-12-14T09:53:56.099Z,69.66
2018-12-14T09:56:23.682Z,69.82
2018-12-14T09:58:51.193Z,70.02
2018-12-14T10:01:18.741Z,70.09
2018-12-14T10:03:46.392Z,70.70
2018-12-14T10:06:15.847Z,69.88
2018-12-14T10:08:43.562Z,70.12
2018-12-14T10:11:11.205Z,70.21
2018-12-14T10:13:38.955Z,70.21
2018-12-14T10:16:06.911Z,70.32
2018-12-14T10:18:34.421Z,70.49
2018-12-14T10:21:01.964Z,70.58
2018-12-14T10:23:29.473Z,70.36
2018-12-14T10:25:56.979Z,70.50
2018-12-14T10:28:24.519Z,70.37
2018-12-14T10:30:52.035Z,70.13
2018-12-14T10:33:19.571Z,70.03
2018-12-14T10:35:47.079Z,70.52
2018-12-14T10:38:14.584Z,70.27
2018-12-14T10:40:42.112Z,70.73
2018-12-14T10:43:09.622Z,70.88
2018-12-14T10:45:37.456Z,70.80
2018-12-14T10:48:05.079Z,70.17
2018-12-14T10:50:39.189Z,69.57
2018-12-14T10:53:04.703Z,69.39
2018-12-14T10:55:32.405Z,69.73
2018-12-14T10:57:59.947Z,69.33
2018-12-14T11:03:32.880Z,69.47
2018-12-14T11:06:00.852Z,69.73
2018-12-14T11:08:28.423Z,69.82
2018-12-14T11:10:55.965Z,70.16
2018-12-14T11:13:23.507Z,69.40
2018-12-14T11:15:51.023Z,69.91
2018-12-14T11:18:18.567Z,69.64
2018-12-14T11:20:46.099Z,70.21
2018-12-14T11:23:13.620Z,69.27
2018-12-14T11:25:41.963Z,69.40
2018-12-14T11:28:09.484Z,69.36
2018-12-14T11:30:37.066Z,69.33
2018-12-14T11:33:04.649Z,70.17
2018-12-14T11:35:34.790Z,70.80
2018-12-14T11:38:06.190Z,70.97
2018-12-14T11:40:33.710Z,70.35
2018-12-14T11:43:01.520Z,70.05
2018-12-14T11:45:29.131Z,70.28
2018-12-14T11:47:56.651Z,69.02
2018-12-14T11:50:24.193Z,69.36
2018-12-14T11:52:51.707Z,69.17
2018-12-14T11:55:19.276Z,70.07
2018-12-14T11:57:46.795Z,69.95
2018-12-14T12:00:14.447Z,69.61
2018-12-14T12:02:43.317Z,69.81
2018-12-14T12:05:11.150Z,69.51
2018-12-14T12:07:39.980Z,69.03
2018-12-14T12:10:08.307Z,69.71
2018-12-14T12:12:35.919Z,69.92
2018-12-14T12:15:03.476Z,70.14
2018-12-14T12:17:31.392Z,69.80
2018-12-14T12:19:59.087Z,70.04
2018-12-14T12:22:26.604Z,70.96
2018-12-14T12:24:54.135Z,70.30
2018-12-14T12:27:22.624Z,70.83
2018-12-14T12:29:50.153Z,71.41
2018-12-14T12:32:17.831Z,70.27
2018-12-14T12:34:45.346Z,70.11
2018-12-14T12:37:12.867Z,69.67
2018-12-14T12:39:40.411Z,69.43
2018-12-14T12:42:07.939Z,70.25
2018-12-14T12:44:35.579Z,70.40
2018-12-14T12:47:03.092Z,70.63
2018-12-14T12:49:30.610Z,70.37
2018-12-14T12:51:58.160Z,70.55
2018-12-14T12:54:25.737Z,69.90
2018-12-14T12:56:53.352Z,69.71
2018-12-14T12:59:21.276Z,70.87
2018-12-14T13:01:48.795Z,70.57
2018-12-14T13:04:16.343Z,71.62
2018-12-14T13:06:43.857Z,71.19
2018-12-14T13:09:12.355Z,70.67
2018-12-14T13:11:39.881Z,70.86
2018-12-14T13:14:07.428Z,70.06
2018-12-14T13:16:34.976Z,69.68
2018-12-14T13:19:02.491Z,69.83
2018-12-14T13:21:30.035Z,69.80
2018-12-14T13:23:57.552Z,69.40
2018-12-14T13:26:25.116Z,68.90
2018-12-14T13:28:53.304Z,68.73
2018-12-14T13:31:20.941Z,69.38
2018-12-14T13:33:48.455Z,69.42
2018-12-14T13:36:16.199Z,69.36
2018-12-14T13:38:43.773Z,69.88
2018-12-14T13:41:11.297Z,70.05
2018-12-14T13:43:38.835Z,70.20
2018-12-14T13:46:06.365Z,69.65
2018-12-14T13:48:33.924Z,69.14
2018-12-14T13:51:04.243Z,69.55
2018-12-14T13:53:31.792Z,68.84
2018-12-14T13:55:59.343Z,69.51
2018-12-14T13:58:26.863Z,69.72
2018-12-14T14:00:54.471Z,69.73
2018-12-14T14:03:21.999Z,70.01
2018-12-14T14:05:49.621Z,69.51
2018-12-14T14:08:17.139Z,69.12
2018-12-14T14:10:44.660Z,68.98
2018-12-14T14:13:12.214Z,68.86
2018-12-14T14:15:39.731Z,68.50
2018-12-14T14:18:07.283Z,68.99
2018-12-14T14:20:34.807Z,68.27
2018-12-14T14:23:02.423Z,68.83
2018-12-14T14:25:30.206Z,68.57
2018-12-14T14:27:57.719Z,68.83
2018-12-14T14:30:25.403Z,67.88
2018-12-14T14:32:52.935Z,68.00
2018-12-14T14:35:20.448Z,67.72
2018-12-14T14:37:47.994Z,67.55
2018-12-14T14:40:15.507Z,67.30
2018-12-14T14:42:43.205Z,68.58
2018-12-14T14:45:10.740Z,67.75
2018-12-14T14:47:38.259Z,67.20
2018-12-14T14:50:08.139Z,67.41
2018-12-14T14:52:35.651Z,67.53
2018-12-14T14:55:03.848Z,67.92
2018-12-14T14:57:31.948Z,68.16
2018-12-14T14:59:59.722Z,67.80
2018-12-14T15:02:27.276Z,67.76
2018-12-14T15:04:54.792Z,67.56
2018-12-14T15:07:22.463Z,67.58
2018-12-14T15:09:50.013Z,67.88
2018-12-14T15:12:17.651Z,68.83
2018-12-14T15:14:45.195Z,68.62
2018-12-14T15:17:12.708Z,69.49
2018-12-14T15:19:40.278Z,69.79
2018-12-14T15:22:07.802Z,70.09
2018-12-14T15:24:35.316Z,70.71
2018-12-14T15:27:04.191Z,70.10
2018-12-14T15:29:31.743Z,69.73
2018-12-14T15:31:59.359Z,69.96
2018-12-14T15:34:27.071Z,69.08
2018-12-14T15:36:54.599Z,68.97
2018-12-14T15:39:22.124Z,68.82
2018-12-14T15:41:49.683Z,68.59
2018-12-14T15:44:17.672Z,68.65
2018-12-14T15:46:45.199Z,69.91
2018-12-14T15:49:12.752Z,70.09
2018-12-14T15:51:40.259Z,69.86
2018-12-14T15:54:07.772Z,70.48
2018-12-14T15:56:35.519Z,70.41
2018-12-14T15:59:03.059Z,70.84
2018-12-14T16:01:30.580Z,71.00
2018-12-14T16:03:58.131Z,70.58
2018-12-14T16:06:25.653Z,70.87
2018-12-14T16:08:53.183Z,70.91
2018-12-14T16:11:21.515Z,70.51
2018-12-14T16:13:49.233Z,70.69
2018-12-14T16:16:16.806Z,70.43
2018-12-14T16:18:44.376Z,71.12
2018-12-14T16:21:11.992Z,70.11
2018-12-14T16:23:39.652Z,71.45
2018-12-14T16:26:07.210Z,71.28
2018-12-14T16:28:35.857Z,71.48
2018-12-14T16:31:03.367Z,71.41
2018-12-14T16:33:31.069Z,71.62
2018-12-14T16:35:58.592Z,71.46
2018-12-14T16:38:26.121Z,70.98
2018-12-14T16:40:53.663Z,70.29
2018-12-14T16:43:21.190Z,70.40
2018-12-14T16:45:48.744Z,70.40
2018-12-14T16:48:16.268Z,70.54
2018-12-14T16:50:43.816Z,70.28
2018-12-14T16:53:11.492Z,70.13
2018-12-14T16:55:39.011Z,70.83
2018-12-14T16:58:06.591Z,71.76
2018-12-14T17:00:34.112Z,72.21
2018-12-14T17:03:01.636Z,72.77
2018-12-14T17:05:29.203Z,72.69
2018-12-14T17:07:56.715Z,72.44
2018-12-14T17:10:24.267Z,72.15
2018-12-14T17:12:51.776Z,70.75
2018-12-14T17:15:19.388Z,70.35
2018-12-14T17:17:46.936Z,70.13
2018-12-14T17:20:14.460Z,70.86
2018-12-14T17:22:42.007Z,71.50
2018-12-14T17:25:09.639Z,73.40
2018-12-14T17:27:37.212Z,73.66
2018-12-14T17:30:05.570Z,72.81
2018-12-14T17:32:33.175Z,72.24
2018-12-14T17:35:00.731Z,71.52
2018-12-14T17:37:28.246Z,71.52
2018-12-14T17:39:55.832Z,71.36
2018-12-14T17:42:23.347Z,71.58
2018-12-14T17:44:50.863Z,71.56
2018-12-14T17:47:18.408Z,70.59
2018-12-14T17:49:45.938Z,70.64
2018-12-14T17:52:13.487Z,70.42
2018-12-14T17:54:41.003Z,69.79
2018-12-14T17:57:08.519Z,70.89
2018-12-14T17:59:36.068Z,71.24
2018-12-14T18:02:03.581Z,71.06
2018-12-14T18:04:31.148Z,70.62
2018-12-14T18:06:58.684Z,70.38
2018-12-14T18:09:26.244Z,70.30
2018-12-14T18:11:53.808Z,70.70
2018-12-14T18:14:21.327Z,69.79
2018-12-14T18:16:50.031Z,69.68
2018-12-14T18:19:17.548Z,69.33
2018-12-14T18:21:45.087Z,69.40
2018-12-14T18:24:12.670Z,69.73
2018-12-14T18:26:40.187Z,71.91
2018-12-14T18:29:07.797Z,73.04
2018-12-14T18:31:35.315Z,74.11
2018-12-14T18:34:02.839Z,74.52
2018-12-14T18:36:30.383Z,75.12
2018-12-14T18:38:57.903Z,73.75
2018-12-14T18:41:25.463Z,73.44
2018-12-14T18:43:52.980Z,71.97
2018-12-14T18:46:20.524Z,71.84
2018-12-14T18:48:48.083Z,71.91
2018-12-14T18:51:15.708Z,71.73
2018-12-14T18:53:45.261Z,71.75
2018-12-14T18:56:12.785Z,71.70
2018-12-14T18:58:40.327Z,71.87
2018-12-14T19:01:07.876Z,72.10
2018-12-14T19:03:35.396Z,71.56
2018-12-14T19:06:03.036Z,71.36
2018-12-14T19:08:30.551Z,70.95
2018-12-14T19:10:58.081Z,71.38
2018-12-14T19:13:25.627Z,71.41
2018-12-14T19:15:59.456Z,70.55
2018-12-14T19:18:22.893Z,70.41
2018-12-14T19:20:50.420Z,70.83
2018-12-14T19:23:19.982Z,70.86
2018-12-14T19:25:47.607Z,70.11
2018-12-14T19:28:15.123Z,69.30
2018-12-14T19:30:42.835Z,69.55
2018-12-14T19:33:10.354Z,69.62
2018-12-14T19:35:37.863Z,70.04
2018-12-14T19:38:05.421Z,70.55
2018-12-14T19:40:32.944Z,71.01
2018-12-14T19:43:00.488Z,70.33
2018-12-14T19:45:28.017Z,70.57
2018-12-14T19:47:55.569Z,70.86
2018-12-14T19:50:23.123Z,71.08
2018-12-14T19:52:50.642Z,71.21
2018-12-14T19:55:18.191Z,70.78
2018-12-14T19:57:45.722Z,71.80
2018-12-14T20:00:13.675Z,72.20
2018-12-14T20:02:41.191Z,72.54
2018-12-14T20:05:08.854Z,73.29
2018-12-14T20:07:36.479Z,73.03
2018-12-14T20:10:05.184Z,71.25
2018-12-14T20:12:32.727Z,71.26
2018-12-14T20:15:00.260Z,71.15
2018-12-14T20:17:27.780Z,71.35
2018-12-14T20:19:55.331Z,72.49
2018-12-14T20:22:22.851Z,72.73
2018-12-14T20:24:50.403Z,72.94
2018-12-14T20:27:17.966Z,73.10
2018-12-14T20:29:45.511Z,72.06
2018-12-14T20:32:13.059Z,72.03
2018-12-14T20:34:40.580Z,71.86
2018-12-14T20:37:08.134Z,71.81
2018-12-14T20:39:35.651Z,72.16
2018-12-14T20:42:03.212Z,72.18
2018-12-14T20:44:30.741Z,72.63
2018-12-14T20:46:58.319Z,73.03
2018-12-14T20:49:25.856Z,72.93
2018-12-14T20:51:53.743Z,73.04
2018-12-14T20:54:21.263Z,73.55
2018-12-14T20:56:51.603Z,73.50
2018-12-14T20:59:18.373Z,73.28
2018-12-14T21:01:45.907Z,72.62
2018-12-14T21:04:13.465Z,72.64
2018-12-14T21:06:40.991Z,72.74
2018-12-14T21:09:08.539Z,72.81
2018-12-14T21:11:36.096Z,72.32
2018-12-14T21:14:03.757Z,71.84
2018-12-14T21:16:31.339Z,72.12
2018-12-14T21:18:58.864Z,72.73
2018-12-14T21:21:26.384Z,71.99
2018-12-14T21:23:53.936Z,72.48
2018-12-14T21:26:21.467Z,72.10
2018-12-14T21:28:49.099Z,72.17
2018-12-14T21:31:16.633Z,72.56
2018-12-14T21:33:44.151Z,72.23
2018-12-14T21:36:11.728Z,72.85
2018-12-14T21:38:39.279Z,71.91
2018-12-14T21:41:06.975Z,72.61
2018-12-14T21:43:34.495Z,72.49
2018-12-14T21:46:02.083Z,72.71
2018-12-14T21:48:29.749Z,73.36
2018-12-14T21:50:57.280Z,73.21
2018-12-14T21:53:24.984Z,73.55
2018-12-14T21:55:52.509Z,73.80
2018-12-14T21:58:20.024Z,74.00
2018-12-14T22:00:47.710Z,73.85
2018-12-14T22:03:17.263Z,74.12
2018-12-14T22:05:44.881Z,74.37
2018-12-14T22:08:12.403Z,73.48
2018-12-14T22:10:39.928Z,74.24
2018-12-14T22:13:07.477Z,73.88
2018-12-14T22:15:35.100Z,73.59
2018-12-14T22:18:02.854Z,73.88
2018-12-14T22:20:30.485Z,74.35
2018-12-14T22:22:58.038Z,73.55
2018-12-14T22:25:25.591Z,73.16
2018-12-14T22:27:53.128Z,73.41
2018-12-14T22:30:20.684Z,74.26
2018-12-14T22:32:48.223Z,73.96
2018-12-14T22:35:15.755Z,74.77
2018-12-14T22:37:43.299Z,74.27
2018-12-14T22:40:10.831Z,73.65
2018-12-14T22:42:38.444Z,74.33
2018-12-14T22:45:06.272Z,73.91
2018-12-14T22:47:33.793Z,73.45
2018-12-14T22:50:01.340Z,74.38
2018-12-14T22:52:28.859Z,74.92
2018-12-14T22:54:56.439Z,74.30
2018-12-14T22:57:23.981Z,74.26
2018-12-14T22:59:52.462Z,74.43
2018-12-14T23:02:20.011Z,73.50
2018-12-14T23:04:47.527Z,74.43
2018-12-14T23:07:15.204Z,74.77
2018-12-14T23:09:42.795Z,74.57
2018-12-14T23:12:10.311Z,74.34
2018-12-14T23:14:37.859Z,75.43
2018-12-14T23:17:06.020Z,75.71
2018-12-14T23:19:33.584Z,75.36
2018-12-14T23:22:01.105Z,75.22
2018-12-14T23:24:28.627Z,75.06
2018-12-14T23:26:56.179Z,74.23
2018-12-14T23:29:23.698Z,73.87
2018-12-14T23:31:51.563Z,74.17
2018-12-14T23:34:19.079Z,74.18
2018-12-14T23:36:46.728Z,74.41
2018-12-14T23:39:14.284Z,74.22
2018-12-14T23:41:41.827Z,74.31
2018-12-14T23:44:09.499Z,74.60
2018-12-14T23:46:37.019Z,74.05
2018-12-14T23:49:04.539Z,74.51
2018-12-14T23:51:32.083Z,74.58
2018-12-14T23:53:59.603Z,75.11
2018-12-14T23:56:27.492Z,75.41
2018-12-14T23:58:55.012Z,75.13
